Latest Weather Observations for Sheoaks

IDV60801

Issued at 12:32 am EDT Friday 21 January 2022 (issued every 10 minutes, with the page automatically refreshed every 10 minutes)

About weather observations | Map of weather stations | Latest weather observations for VIC | Other Formats
Station Details ID: 087168 Name: SHEOAKS Lat: -37.91 Lon: 144.13 Height: 236.7 m
Data from the previous 72 hours. | See also: Recent months at Sheoaks
Date/Time
EDT
Temp
°C
App
Temp
°C
Dew
Point
°C
Rel
Hum
%
Delta-T
°C
Wind Press
QNH
hPa
Press
MSL
hPa
Rain since
9am
mm
Dir  Spd
km/h
Gust
km/h
Spd
kts
Gust
kts
21/12:30am 15.5 15.1 12.4 82 1.7 E 6 11 3 6 1026.4 1025.7 0.0
21/12:00am 16.5 15.6 12.7 78 2.1 E 9 13 5 7 1026.5 1025.8 0.0
 
Date/Time
EDT
Temp
°C
App
Temp
°C
Dew
Point
°C
Rel
Hum
%
Delta-T
°C
Wind Press
QNH
hPa
Press
MSL
hPa
Rain since
9am
mm
Dir  Spd
km/h
Gust
km/h
Spd
kts
Gust
kts
20/11:30pm 17.0 15.3 12.5 75 2.5 E 13 19 7 10 1026.4 1025.7 0.0
20/11:00pm 17.7 16.1 12.8 73 2.8 ESE 13 20 7 11 1026.2 1025.5 0.0
20/10:30pm 16.9 16.3 12.4 75 2.5 SE 7 11 4 6 1026.2 1025.5 0.0
20/10:00pm 16.9 16.2 12.0 73 2.7 SE 7 9 4 5 1026.1 1025.4 0.0
20/09:30pm 18.7 17.7 12.2 66 3.6 SE 9 11 5 6 1025.9 1025.2 0.0
20/09:00pm 20.7 18.9 10.8 53 5.4 ESE 11 17 6 9 1025.6 1024.9 0.0
20/08:30pm 21.9 19.4 9.8 46 6.6 ESE 13 22 7 12 1025.4 1024.7 0.0
20/08:00pm 23.1 19.8 9.5 42 7.4 ESE 17 24 9 13 1025.3 1024.6 0.0
20/07:30pm 24.0 20.5 8.8 38 8.3 ESE 17 26 9 14 1025.2 1024.5 0.0
20/07:00pm 24.8 21.2 9.9 39 8.2 ESE 19 28 10 15 1025.0 1024.3 0.0
20/06:30pm 24.9 20.6 9.2 37 8.6 ESE 22 28 12 15 1025.0 1024.3 0.0
20/06:00pm 25.4 21.6 9.7 37 8.7 ESE 20 32 11 17 1025.1 1024.4 0.0
20/05:30pm 26.0 22.1 9.4 35 9.2 ESE 20 32 11 17 1025.2 1024.5 0.0
20/05:00pm 25.4 20.4 8.0 33 9.3 ESE 24 32 13 17 1025.6 1024.9 0.0
20/04:30pm 26.1 21.6 8.6 33 9.6 ESE 22 33 12 18 1025.8 1025.1 0.0
20/04:00pm 25.2 20.5 7.8 33 9.3 ESE 22 32 12 17 1026.2 1025.5 0.0
20/03:30pm 25.0 20.6 7.2 32 9.4 ESE 20 32 11 17 1026.5 1025.8 0.0
20/03:00pm 24.5 20.2 8.0 35 8.8 ESE 20 30 11 16 1026.6 1025.9 0.0
20/02:30pm 24.6 20.6 8.1 35 8.9 ESE 19 28 10 15 1026.7 1026.0 0.0
20/02:00pm 24.3 20.2 7.9 35 8.7 ESE 19 28 10 15 1027.0 1026.3 0.0
20/01:30pm 23.3 19.0 7.0 35 8.5 SE 19 28 10 15 1027.3 1026.6 0.0
20/01:00pm 23.1 19.4 9.5 42 7.4 SE 19 30 10 16 1027.7 1027.0 0.0
20/12:30pm 22.6 19.6 10.7 47 6.6 ESE 17 26 9 14 1027.9 1027.3 0.0
20/12:00pm 21.2 18.4 10.1 49 6.0 SE 15 22 8 12 1028.2 1027.6 0.0
20/11:30am 21.3 18.8 11.1 52 5.7 SE 15 24 8 13 1028.3 1027.7 0.0
20/11:00am 20.9 18.9 11.5 55 5.2 SE 13 22 7 12 1028.5 1027.9 0.0
20/10:30am 19.8 18.2 11.6 59 4.6 SSE 11 19 6 10 1028.6 1028.0 0.0
20/10:00am 19.3 17.6 11.3 60 4.4 ESE 11 17 6 9 1028.4 1027.8 0.0
20/09:30am 18.2 16.2 11.5 65 3.7 ESE 13 22 7 12 1028.4 1027.8 0.0
20/09:00am 17.7 15.3 11.5 67 3.4 ESE 15 20 8 11 1028.4 1027.8 0.0
20/08:30am 17.1 14.5 12.0 72 2.8 ESE 17 26 9 14 1028.1 1027.5 0.0
20/08:00am 16.2 13.7 12.2 77 2.2 ESE 17 26 9 14 1028.1 1027.5 0.0
20/07:30am 15.2 13.1 12.3 83 1.6 ESE 15 24 8 13 1028.1 1027.5 0.0
20/07:00am 14.7 13.4 12.6 87 1.2 ESE 11 15 6 8 1028.0 1027.4 0.0
20/06:30am 14.2 13.3 12.6 90 0.9 SE 9 13 5 7 1027.5 1026.8 0.0
20/06:00am 13.8 12.7 12.0 89 1.0 ESE 9 13 5 7 1027.4 1026.7 0.0
20/05:30am 14.1 13.0 11.8 86 1.2 ESE 9 19 5 10 1027.2 1026.5 0.0
20/05:00am 14.8 13.4 12.3 85 1.4 ESE 11 19 6 10 1026.9 1026.2 0.0
20/04:30am 14.7 13.3 12.2 85 1.4 E 11 17 6 9 1026.5 1025.8 0.0
20/04:00am 14.7 12.5 12.2 85 1.4 ESE 15 20 8 11 1026.2 1025.5 0.0
20/03:30am 15.0 12.5 12.3 84 1.5 E 17 22 9 12 1026.3 1025.6 0.0
20/03:00am 15.1 12.2 12.2 83 1.6 ESE 19 26 10 14 1026.5 1025.8 0.0
20/02:30am 15.2 12.0 12.0 81 1.8 ESE 20 35 11 19 1026.6 1025.9 0.0
20/02:00am 15.2 12.0 11.8 80 1.8 ESE 20 30 11 16 1026.9 1026.2 0.0
20/01:30am 15.0 11.3 11.6 80 1.8 ESE 22 33 12 18 1026.8 1026.1 0.0
20/01:00am 14.9 11.7 11.3 79 1.9 ESE 19 28 10 15 1027.0 1026.3 0.0
20/12:30am 15.4 12.0 11.2 76 2.3 ESE 20 32 11 17 1027.1 1026.4 0.0
20/12:00am 15.4 12.9 11.0 75 2.4 ESE 15 26 8 14 1027.0 1026.3 0.0
 
Date/Time
EDT
Temp
°C
App
Temp
°C
Dew
Point
°C
Rel
Hum
%
Delta-T
°C
Wind Press
QNH
hPa
Press
MSL
hPa
Rain since
9am
mm
Dir  Spd
km/h
Gust
km/h
Spd
kts
Gust
kts
19/11:30pm 15.9 12.5 10.7 71 2.8 ESE 19 28 10 15 1026.8 1026.1 0.0
19/11:00pm 16.3 13.2 10.4 68 3.1 ESE 17 26 9 14 1026.6 1025.9 0.0
19/10:30pm 16.6 12.5 10.2 66 3.4 ESE 22 33 12 18 1026.4 1025.7 0.0
19/10:00pm 17.2 12.8 10.3 64 3.7 ESE 24 37 13 20 1026.2 1025.5 0.0
19/09:30pm 17.2 13.5 10.1 63 3.8 ESE 20 37 11 20 1025.7 1025.0 0.0
19/09:00pm 17.8 13.7 10.2 61 4.1 ESE 22 33 12 18 1025.3 1024.6 0.0
19/08:30pm 18.4 14.0 10.5 60 4.3 ESE 24 35 13 19 1025.2 1024.5 0.0
19/08:00pm 19.3 14.4 9.8 54 5.1 ESE 26 44 14 24 1024.6 1024.0 0.0
19/07:30pm 20.1 13.9 9.9 52 5.5 ESE 33 54 18 29 1024.5 1023.9 0.0
19/07:25pm 20.2 14.0 10.0 52 5.5 ESE 33 54 18 29 1024.3 1023.7 0.0
19/07:00pm 20.8 14.8 10.0 50 5.9 ESE 32 44 17 24 1024.0 1023.3 0.0
19/06:30pm 22.1 16.6 10.6 48 6.4 ESE 30 41 16 22 1023.7 1023.0 0.0
19/06:00pm 22.3 17.1 11.7 51 6.0 SE 30 43 16 23 1023.4 1022.7 0.0
19/05:30pm 22.4 15.9 10.5 47 6.6 ESE 35 48 19 26 1023.3 1022.6 0.0
19/05:00pm 22.8 17.0 10.9 47 6.6 ESE 32 46 17 25 1023.3 1022.6 0.0
19/04:30pm 22.9 17.3 10.3 45 7.0 ESE 30 48 16 26 1023.4 1022.7 0.0
19/04:00pm 22.6 16.2 10.7 47 6.6 ESE 35 54 19 29 1023.1 1022.4 0.0
19/03:31pm 22.4 15.8 11.5 50 6.2 ESE 37 57 20 31 1023.2 1022.5 0.0
19/03:30pm 22.0 15.3 11.1 50 6.1 ESE 37 52 20 28 1023.2 1022.5 0.0
19/03:06pm 23.5 18.1 12.2 49 6.5 ESE 32 50 17 27 1023.2 1022.5 0.0
19/03:00pm 23.1 17.6 11.8 49 6.4 ESE 32 48 17 26 1023.2 1022.5 0.0
19/02:37pm 22.9 17.7 11.6 49 6.4 ESE 30 48 16 26 1023.3 1022.6 0.0
19/02:30pm 22.8 16.9 11.2 48 6.5 ESE 33 48 18 26 1023.3 1022.6 0.0
19/02:00pm 23.1 17.0 11.8 49 6.4 ESE 35 48 19 26 1023.4 1022.7 0.0
19/01:41pm 22.8 17.1 11.8 50 6.3 ESE 33 56 18 30 1023.4 1022.7 0.0
19/01:30pm 22.1 16.7 12.1 53 5.7 SE 32 48 17 26 1023.3 1022.6 0.0
19/01:00pm 22.3 16.8 12.0 52 5.8 ESE 32 48 17 26 1023.4 1022.7 0.0
19/12:30pm 21.6 15.9 11.9 54 5.5 ESE 33 50 18 27 1023.3 1022.6 0.0
19/12:01pm 20.7 15.8 12.7 60 4.6 ESE 30 48 16 26 1023.4 1022.7 0.0
19/12:00pm 20.4 15.1 12.4 60 4.5 ESE 32 48 17 26 1023.4 1022.7 0.0
19/11:45am 20.9 16.0 13.8 64 4.1 ESE 32 50 17 27 1023.5 1022.8 0.0
19/11:30am 18.8 13.5 13.0 69 3.3 ESE 33 48 18 26 1023.5 1022.8 0.0
19/11:08am 18.7 13.5 12.9 69 3.3 ESE 32 54 17 29 1023.4 1022.7 0.0
19/11:00am 18.8 13.7 13.0 69 3.3 ESE 32 50 17 27 1023.3 1022.6 0.0
19/10:30am 18.6 13.9 13.2 71 3.1 ESE 30 41 16 22 1023.2 1022.5 0.0
19/10:00am 18.6 14.5 13.7 73 2.8 ESE 28 46 15 25 1023.0 1022.3 0.0
19/09:46am 18.3 14.1 13.4 73 2.8 ESE 28 46 15 25 1022.9 1022.2 0.0
19/09:30am 18.2 14.4 13.5 74 2.7 ESE 26 39 14 21 1022.6 1021.9 0.0
19/09:15am 18.1 13.5 13.4 74 2.7 ESE 30 48 16 26 1022.5 1021.8 0.0
19/09:00am 17.8 14.0 13.5 76 2.5 ESE 26 37 14 20 1022.3 1021.6 0.0
19/08:30am 17.3 13.1 13.6 79 2.1 ESE 28 44 15 24 1021.7 1021.0 0.0
19/08:00am 17.0 13.3 13.9 82 1.8 ESE 26 41 14 22 1021.2 1020.5 0.0
19/07:30am 16.4 13.8 14.8 90 0.9 ESE 22 35 12 19 1020.7 1020.0 0.0
19/07:00am 15.8 13.9 15.2 96 0.3 ESE 19 24 10 13 1020.3 1019.6 0.0
19/06:30am 15.1 13.8 14.9 99 0.1 SE 15 20 8 11 1020.0 1019.3 0.0
19/06:00am 14.1 13.3 13.9 99 0.1 SE 11 15 6 8 1019.8 1019.1 0.0
19/05:30am 13.0 12.5 12.7 98 0.2 SE 7 11 4 6 1019.6 1018.9 0.0
19/05:00am 12.6 11.9 12.1 97 0.3 SE 7 11 4 6 1019.5 1018.8 0.0
19/04:30am 12.4 11.6 11.8 96 0.3 SE 7 9 4 5 1019.3 1018.6 0.0
19/04:00am 12.6 12.4 11.8 95 0.4 SE 4 6 2 3 1019.2 1018.5 0.0
19/03:30am 12.9 12.4 12.0 94 0.5 SE 6 7 3 4 1019.1 1018.4 0.0
19/03:00am 13.0 12.4 11.6 91 0.8 SE 6 7 3 4 1019.1 1018.4 0.0
19/02:30am 14.0 12.9 12.0 88 1.1 SSE 9 15 5 8 1019.4 1018.7 0.0
19/02:00am 14.4 13.3 12.1 86 1.3 SE 9 17 5 9 1019.5 1018.8 0.0
19/01:30am 14.3 13.2 11.8 85 1.4 SSE 9 17 5 9 1019.5 1018.8 0.0
19/01:00am 14.2 12.6 11.4 83 1.5 SSE 11 19 6 10 1019.6 1018.9 0.0
19/12:30am 13.7 12.3 10.9 83 1.5 SSE 9 15 5 8 1019.6 1018.9 0.0
19/12:00am 13.4 12.1 10.0 80 1.8 SSE 7 13 4 7 1019.6 1018.9 0.0
 
Date/Time
EDT
Temp
°C
App
Temp
°C
Dew
Point
°C
Rel
Hum
%
Delta-T
°C
Wind Press
QNH
hPa
Press
MSL
hPa
Rain since
9am
mm
Dir  Spd
km/h
Gust
km/h
Spd
kts
Gust
kts
18/11:30pm 13.4 12.1 9.8 79 1.9 SSE 7 11 4 6 1019.8 1019.1 0.0
18/11:00pm 13.1 11.7 9.4 78 1.9 SSE 7 9 4 5 1019.9 1019.2 0.0
18/10:30pm 13.1 11.6 9.0 76 2.1 SSE 7 11 4 6 1019.8 1019.1 0.0
18/10:00pm 13.9 11.2 9.1 73 2.5 SSE 13 20 7 11 1019.8 1019.1 0.0
18/09:30pm 14.5 11.4 8.9 69 2.9 SSE 15 28 8 15 1019.9 1019.2 0.0
18/09:00pm 14.9 11.9 9.1 68 3.0 SSE 15 22 8 12 1019.5 1018.8 0.0
18/08:30pm 15.2 12.4 8.4 64 3.5 SSE 13 22 7 12 1019.1 1018.4 0.0
18/08:00pm 15.4 12.2 8.4 63 3.6 SSE 15 24 8 13 1018.6 1017.9 0.0
18/07:30pm 15.7 12.4 9.4 66 3.3 SSE 17 30 9 16 1017.8 1017.1 0.0
18/07:00pm 15.9 12.1 8.9 63 3.6 SE 19 26 10 14 1017.9 1017.2 0.0
18/06:30pm 16.1 12.8 9.5 65 3.5 SSE 17 26 9 14 1017.7 1017.0 0.0
18/06:00pm 16.1 12.8 9.5 65 3.5 SSE 17 26 9 14 1017.8 1017.1 0.0
18/05:30pm 17.1 14.4 9.0 59 4.2 SSE 13 22 7 12 1017.4 1016.7 0.0
18/05:00pm 17.4 13.7 9.3 59 4.3 SE 19 30 10 16 1017.5 1016.8 0.0
18/04:30pm 17.2 14.0 9.9 62 3.9 SSE 17 30 9 16 1017.7 1017.0 0.0
18/04:00pm 16.7 13.8 9.6 63 3.7 SSE 15 24 8 13 1017.6 1016.9 0.0
18/03:30pm 17.8 15.2 9.4 58 4.5 SSE 13 19 7 10 1017.5 1016.8 0.0
18/03:00pm 17.4 14.2 9.8 61 4.0 SSE 17 28 9 15 1017.7 1017.0 0.0
18/02:30pm 16.8 13.0 9.2 61 4.0 SSE 19 30 10 16 1017.7 1017.0 0.0
18/02:00pm 17.7 14.2 8.8 56 4.7 SE 17 24 9 13 1017.8 1017.1 0.0
18/01:30pm 17.9 14.6 8.2 53 5.0 SSE 15 24 8 13 1017.9 1017.2 0.0
18/01:00pm 18.2 15.5 9.0 55 4.8 SSE 13 24 7 13 1018.0 1017.3 0.0
18/12:30pm 17.1 13.9 9.8 62 3.9 S 17 28 9 15 1018.0 1017.3 0.0
18/12:00pm 17.3 14.2 8.7 57 4.5 SSE 15 26 8 14 1017.7 1017.0 0.0
18/11:30am 16.7 13.2 8.7 59 4.2 SSE 17 26 9 14 1017.8 1017.1 0.0
18/11:00am 17.0 13.9 8.9 59 4.2 SSE 15 24 8 13 1017.9 1017.2 0.0
18/10:30am 16.6 14.5 9.8 64 3.6 SSE 11 19 6 10 1017.6 1016.9 0.0
18/10:00am 16.6 14.7 9.1 61 3.9 SSW 9 15 5 8 1017.4 1016.7 0.0
18/09:30am 16.1 14.1 8.8 62 3.8 SE 9 15 5 8 1017.5 1016.8 0.0
18/09:00am 15.5 14.1 9.4 67 3.2 SSE 7 11 4 6 1017.3 1016.6 0.0
18/08:30am 14.6 12.7 9.2 70 2.8 S 9 13 5 7 1017.2 1016.5 0.0
18/08:00am 14.4 12.9 9.0 70 2.8 SSW 7 11 4 6 1016.9 1016.2 0.0
18/07:30am 13.4 12.0 9.5 77 2.0 SSW 7 13 4 7 1016.7 1015.9 0.0
18/07:00am 13.3 12.9 9.9 80 1.8 SSW 2 6 1 3 1016.6 1015.8 0.0
18/06:30am 13.4 13.1 10.0 80 1.8 SSE 2 6 1 3 1016.2 1015.4 0.0
18/06:00am 12.9 12.3 10.4 85 1.3 S 4 6 2 3 1015.8 1015.1 0.0
18/05:30am 11.9 11.8 9.6 86 1.2 CALM 0 0 0 0 1015.6 1014.9 0.0
18/05:00am 11.8 11.8 9.7 87 1.1 CALM 0 0 0 0 1015.2 1014.5 0.0
18/04:30am 11.5 11.4 9.4 87 1.1 CALM 0 0 0 0 1015.3 1014.6 0.0
18/04:00am 11.2 11.0 9.1 87 1.1 CALM 0 0 0 0 1015.2 1014.5 0.0
18/03:30am 11.7 11.5 8.9 83 1.4 CALM 0 0 0 0 1015.3 1014.6 0.0
18/03:00am 12.4 12.1 8.5 77 2.0 CALM 0 0 0 0 1015.6 1014.9 0.0
18/02:30am 13.4 12.4 8.7 73 2.4 S 4 4 2 2 1015.7 1015.0 0.0
18/02:00am 13.9 12.4 8.5 70 2.7 SSE 6 7 3 4 1015.8 1015.1 0.0
18/01:30am 14.4 12.9 8.6 68 3.0 S 6 7 3 4 1015.7 1015.0 0.0
18/01:00am 14.6 13.0 8.8 68 3.0 S 7 13 4 7 1015.7 1015.0 0.0

Other formats

Comma delimited format used in spreadsheet applications
http://www.bom.gov.au/fwo/IDV60801/IDV60801.94863.axf

JavaScript Object Notation format (JSON) in row-major order
http://www.bom.gov.au/fwo/IDV60801/IDV60801.94863.json

Data quality

Most of these data are generated automatically and are frequently updated. Quality checks on data are not normally performed. It is possible for incorrect values to appear. Refer to information at About Latest Weather Observations and please check the disclaimer before using these data.